UAE805 OMDB-OEJN
Flight info
| Callsign | UAE805 |
|---|---|
| Flight time | N/A |
| Altitude | 34000 |
| Route | SENPA N571 ALPOB L768 ULADA T136 OTISU N112 GETOT Q212 KIA G782 VEMEM |
| Aircraft | B77W/H-SDE1E2E3FGHIJ2J3J4J5M1RWXY/LB1D1 |
Departure
| Time | 2026-05-05 10:00 |
|---|---|
| Airport | Dubai International Airport (OMDB) |
Arrival
| Time | N/A |
|---|---|
| Airport | King Abdulaziz International Airport (OEJN) |
| Time | Latitude | Longitude | Altitude | Speed | Heading |
|---|---|---|---|---|---|
| 2026-05-05 09:46 | 25.23913 | 55.38206 | 70 ft | 0 kts | 210° |
| 2026-05-05 09:49 | 25.23922 | 55.38211 | 50 ft | 2 kts | 202° |
| 2026-05-05 09:49 | 25.23937 | 55.38218 | 52 ft | 2 kts | 197° |
| 2026-05-05 09:49 | 25.23953 | 55.38222 | 48 ft | 2 kts | 183° |
| 2026-05-05 09:50 | 25.23970 | 55.38221 | 50 ft | 2 kts | 162° |
| 2026-05-05 09:50 | 25.23985 | 55.38213 | 47 ft | 2 kts | 140° |
| 2026-05-05 09:50 | 25.23996 | 55.38200 | 49 ft | 2 kts | 124° |
| 2026-05-05 09:50 | 25.24001 | 55.38192 | 46 ft | 1 kts | 120° |
| 2026-05-05 09:53 | 25.23999 | 55.38196 | 49 ft | 2 kts | 120° |
| 2026-05-05 09:53 | 25.23980 | 55.38232 | 49 ft | 8 kts | 119° |
| 2026-05-05 09:53 | 25.23943 | 55.38301 | 52 ft | 11 kts | 121° |
| 2026-05-05 09:54 | 25.23905 | 55.38371 | 52 ft | 9 kts | 121° |
| 2026-05-05 09:54 | 25.23872 | 55.38435 | 53 ft | 11 kts | 115° |
| 2026-05-05 09:54 | 25.23885 | 55.38509 | 54 ft | 11 kts | 65° |
| 2026-05-05 09:54 | 25.23880 | 55.38599 | 54 ft | 13 kts | 117° |
| 2026-05-05 09:55 | 25.23830 | 55.38693 | 53 ft | 15 kts | 121° |
| 2026-05-05 09:55 | 25.23775 | 55.38794 | 58 ft | 14 kts | 121° |
| 2026-05-05 09:55 | 25.23722 | 55.38888 | 57 ft | 14 kts | 121° |
| 2026-05-05 09:55 | 25.23670 | 55.38983 | 63 ft | 14 kts | 121° |
| 2026-05-05 09:56 | 25.23618 | 55.39078 | 60 ft | 14 kts | 121° |
| 2026-05-05 09:56 | 25.23582 | 55.39144 | 60 ft | 0 kts | 121° |
| 2026-05-05 09:57 | 25.23576 | 55.39154 | 61 ft | 4 kts | 121° |
| 2026-05-05 09:58 | 25.23559 | 55.39186 | 64 ft | 5 kts | 121° |
| 2026-05-05 09:58 | 25.23540 | 55.39221 | 61 ft | 6 kts | 121° |
| 2026-05-05 09:58 | 25.23517 | 55.39259 | 65 ft | 7 kts | 124° |
| 2026-05-05 09:58 | 25.23502 | 55.39308 | 65 ft | 7 kts | 94° |
| 2026-05-05 09:59 | 25.23529 | 55.39352 | 69 ft | 5 kts | 40° |
| 2026-05-05 09:59 | 25.23550 | 55.39368 | 84 ft | 4 kts | 35° |
| 2026-05-05 09:59 | 25.23595 | 55.39394 | 84 ft | 11 kts | 14° |
| 2026-05-05 09:59 | 25.23672 | 55.39333 | 67 ft | 19 kts | 303° |
| 2026-05-05 10:00 | 25.23799 | 55.39108 | 64 ft | 66 kts | 301° |
| 2026-05-05 10:00 | 25.24223 | 55.38351 | 53 ft | 153 kts | 301° |
| 2026-05-05 10:00 | 25.24880 | 55.37200 | 58 ft | 196 kts | 304° |
| 2026-05-05 10:00 | 25.25591 | 55.35986 | 842 ft | 184 kts | 303° |
| 2026-05-05 10:01 | 25.26215 | 55.34667 | 1138 ft | 207 kts | 301° |
| 2026-05-05 10:01 | 25.27047 | 55.33288 | 1432 ft | 222 kts | 307° |
| 2026-05-05 10:01 | 25.27987 | 55.31863 | 1870 ft | 241 kts | 307° |
| 2026-05-05 10:01 | 25.29024 | 55.30266 | 2204 ft | 267 kts | 306° |
| 2026-05-05 10:02 | 25.29737 | 55.28355 | 2814 ft | 275 kts | 276° |
| 2026-05-05 10:02 | 25.29846 | 55.26218 | 3400 ft | 282 kts | 273° |
| 2026-05-05 10:02 | 25.29991 | 55.24041 | 4132 ft | 285 kts | 274° |
| 2026-05-05 10:02 | 25.30159 | 55.21855 | 4924 ft | 286 kts | 275° |
| 2026-05-05 10:03 | 25.30333 | 55.19661 | 5699 ft | 287 kts | 275° |
| 2026-05-05 10:03 | 25.30444 | 55.17460 | 6438 ft | 288 kts | 269° |
| 2026-05-05 10:03 | 25.30309 | 55.15237 | 7133 ft | 291 kts | 265° |
| 2026-05-05 10:03 | 25.30100 | 55.13001 | 7808 ft | 295 kts | 264° |
| 2026-05-05 10:04 | 25.29887 | 55.10730 | 8511 ft | 298 kts | 264° |
| 2026-05-05 10:04 | 25.29684 | 55.08439 | 9225 ft | 301 kts | 265° |
| 2026-05-05 10:04 | 25.29490 | 55.06127 | 9895 ft | 304 kts | 265° |
| 2026-05-05 10:04 | 25.29300 | 55.03772 | 10461 ft | 313 kts | 265° |
| 2026-05-05 10:05 | 25.29105 | 55.01280 | 10648 ft | 337 kts | 265° |
| 2026-05-05 10:05 | 25.28898 | 54.98613 | 10828 ft | 361 kts | 265° |
| 2026-05-05 10:05 | 25.28677 | 54.95766 | 11067 ft | 381 kts | 265° |
| 2026-05-05 10:05 | 25.28495 | 54.92808 | 11675 ft | 389 kts | 268° |
| 2026-05-05 10:06 | 25.28421 | 54.89805 | 12495 ft | 392 kts | 269° |
| 2026-05-05 10:06 | 25.28358 | 54.86785 | 13409 ft | 394 kts | 269° |
| 2026-05-05 10:06 | 25.28309 | 54.84784 | 13940 ft | 395 kts | 269° |
| 2026-05-05 10:06 | 25.28226 | 54.81735 | 14685 ft | 398 kts | 269° |
| 2026-05-05 10:07 | 25.28106 | 54.77659 | 15635 ft | 403 kts | 268° |
| 2026-05-05 10:07 | 25.28067 | 54.74548 | 16360 ft | 407 kts | 274° |
| 2026-05-05 10:07 | 25.28596 | 54.71475 | 17061 ft | 410 kts | 286° |
| 2026-05-05 10:07 | 25.29434 | 54.68455 | 17777 ft | 413 kts | 287° |
| 2026-05-05 10:08 | 25.30010 | 54.66393 | 18226 ft | 416 kts | 287° |
| 2026-05-05 10:08 | 25.30843 | 54.63318 | 18844 ft | 420 kts | 286° |
| 2026-05-05 10:08 | 25.31650 | 54.60201 | 19472 ft | 423 kts | 285° |
| 2026-05-05 10:08 | 25.32431 | 54.57100 | 20088 ft | 426 kts | 285° |
| 2026-05-05 10:09 | 25.33233 | 54.53887 | 20716 ft | 430 kts | 285° |
| 2026-05-05 10:09 | 25.34048 | 54.50733 | 21309 ft | 434 kts | 286° |
| 2026-05-05 10:09 | 25.34918 | 54.47526 | 21889 ft | 438 kts | 287° |
| 2026-05-05 10:09 | 25.35808 | 54.44289 | 22473 ft | 442 kts | 287° |
| 2026-05-05 10:10 | 25.36702 | 54.41032 | 23059 ft | 445 kts | 287° |
| 2026-05-05 10:10 | 25.37598 | 54.37742 | 23579 ft | 449 kts | 286° |
| 2026-05-05 10:10 | 25.38496 | 54.34424 | 24067 ft | 451 kts | 286° |
| 2026-05-05 10:10 | 25.39392 | 54.31102 | 24615 ft | 452 kts | 286° |
| 2026-05-05 10:11 | 25.40290 | 54.27771 | 25134 ft | 452 kts | 285° |
| 2026-05-05 10:11 | 25.41146 | 54.24423 | 25654 ft | 453 kts | 284° |
| 2026-05-05 10:11 | 25.41973 | 54.21043 | 26131 ft | 455 kts | 284° |
| 2026-05-05 10:11 | 25.42793 | 54.17654 | 26606 ft | 457 kts | 284° |
| 2026-05-05 10:12 | 25.43624 | 54.14255 | 27075 ft | 459 kts | 284° |
| 2026-05-05 10:12 | 25.44464 | 54.10845 | 27539 ft | 460 kts | 284° |
| 2026-05-05 10:12 | 25.45306 | 54.07422 | 27990 ft | 462 kts | 284° |
| 2026-05-05 10:12 | 25.46146 | 54.03982 | 28415 ft | 463 kts | 284° |
| 2026-05-05 10:13 | 25.46984 | 54.00539 | 28807 ft | 465 kts | 283° |
| 2026-05-05 10:13 | 25.47826 | 53.97073 | 29175 ft | 467 kts | 283° |
| 2026-05-05 10:13 | 25.48670 | 53.93596 | 29549 ft | 468 kts | 283° |
| 2026-05-05 10:13 | 25.49511 | 53.90129 | 30003 ft | 466 kts | 283° |
| 2026-05-05 10:14 | 25.50350 | 53.86671 | 30478 ft | 463 kts | 283° |
| 2026-05-05 10:14 | 25.51180 | 53.83245 | 30957 ft | 460 kts | 283° |
| 2026-05-05 10:14 | 25.51995 | 53.79878 | 31422 ft | 457 kts | 283° |
| 2026-05-05 10:14 | 25.52816 | 53.76483 | 31855 ft | 456 kts | 283° |
| 2026-05-05 10:15 | 25.53629 | 53.73103 | 32276 ft | 454 kts | 282° |
| 2026-05-05 10:15 | 25.54432 | 53.69724 | 32711 ft | 452 kts | 282° |
| 2026-05-05 10:15 | 25.55225 | 53.66369 | 33125 ft | 450 kts | 282° |
| 2026-05-05 10:15 | 25.56016 | 53.63017 | 33546 ft | 449 kts | 282° |
| 2026-05-05 10:16 | 25.56803 | 53.59680 | 33919 ft | 447 kts | 282° |
| 2026-05-05 10:16 | 25.57587 | 53.56355 | 34259 ft | 446 kts | 282° |
| 2026-05-05 10:16 | 25.58369 | 53.53035 | 34569 ft | 445 kts | 282° |
| 2026-05-05 10:16 | 25.59151 | 53.49719 | 34871 ft | 444 kts | 282° |
| 2026-05-05 10:17 | 25.59928 | 53.46416 | 35181 ft | 443 kts | 282° |
| 2026-05-05 10:17 | 25.60705 | 53.43113 | 35494 ft | 442 kts | 282° |
| 2026-05-05 10:17 | 25.61480 | 53.39816 | 35773 ft | 441 kts | 282° |
| 2026-05-05 10:17 | 25.62257 | 53.36529 | 36047 ft | 441 kts | 282° |
| 2026-05-05 10:18 | 25.63034 | 53.33245 | 36326 ft | 440 kts | 282° |
| 2026-05-05 10:18 | 25.63808 | 53.29975 | 36592 ft | 439 kts | 282° |
| 2026-05-05 10:18 | 25.64582 | 53.26701 | 36892 ft | 437 kts | 282° |
| 2026-05-05 10:18 | 25.65347 | 53.23462 | 37373 ft | 431 kts | 282° |
| 2026-05-05 10:19 | 25.66099 | 53.20273 | 37841 ft | 426 kts | 281° |
| 2026-05-05 10:19 | 25.66846 | 53.17092 | 37991 ft | 428 kts | 281° |
| 2026-05-05 10:19 | 25.68359 | 53.10637 | 38005 ft | 437 kts | 281° |
| 2026-05-05 10:20 | 25.69922 | 53.04115 | 38008 ft | 438 kts | 284° |
| 2026-05-05 10:20 | 25.72146 | 52.97906 | 38005 ft | 438 kts | 293° |
| 2026-05-05 10:21 | 25.75007 | 52.91899 | 38232 ft | 441 kts | 293° |
| 2026-05-05 10:21 | 25.76448 | 52.88893 | 38393 ft | 442 kts | 293° |
| 2026-05-05 10:21 | 25.77885 | 52.85880 | 38528 ft | 442 kts | 293° |
| 2026-05-05 10:22 | 25.79318 | 52.82861 | 38629 ft | 443 kts | 293° |
| 2026-05-05 10:22 | 25.80750 | 52.79831 | 38698 ft | 444 kts | 293° |
| 2026-05-05 10:22 | 25.83622 | 52.73737 | 38775 ft | 446 kts | 293° |
| 2026-05-05 10:23 | 25.86500 | 52.67623 | 38779 ft | 447 kts | 293° |
| 2026-05-05 10:23 | 25.89375 | 52.61510 | 38781 ft | 447 kts | 292° |
| 2026-05-05 10:24 | 25.92152 | 52.55396 | 38781 ft | 445 kts | 291° |
| 2026-05-05 10:24 | 25.94866 | 52.49218 | 38782 ft | 445 kts | 291° |
| 2026-05-05 10:25 | 25.97592 | 52.43053 | 38780 ft | 444 kts | 291° |
| 2026-05-05 10:25 | 26.00321 | 52.36906 | 38781 ft | 443 kts | 291° |
| 2026-05-05 10:26 | 26.03052 | 52.30775 | 38779 ft | 442 kts | 291° |
| 2026-05-05 10:26 | 26.05778 | 52.24648 | 38781 ft | 441 kts | 291° |
| 2026-05-05 10:27 | 26.08492 | 52.18533 | 38782 ft | 441 kts | 291° |
| 2026-05-05 10:27 | 26.11201 | 52.12419 | 38778 ft | 440 kts | 291° |
| 2026-05-05 10:28 | 26.13902 | 52.06315 | 38781 ft | 440 kts | 291° |
| 2026-05-05 10:28 | 26.16601 | 52.00207 | 38779 ft | 439 kts | 291° |
| 2026-05-05 10:29 | 26.19334 | 51.94124 | 38782 ft | 440 kts | 291° |
| 2026-05-05 10:29 | 26.22056 | 51.88027 | 38785 ft | 439 kts | 291° |
| 2026-05-05 10:30 | 26.24752 | 51.81918 | 38781 ft | 439 kts | 290° |
| 2026-05-05 10:30 | 26.27447 | 51.75857 | 38782 ft | 440 kts | 291° |
| 2026-05-05 10:31 | 26.30171 | 51.69761 | 38784 ft | 440 kts | 291° |
| 2026-05-05 10:31 | 26.32889 | 51.63659 | 38780 ft | 439 kts | 290° |
| 2026-05-05 10:32 | 26.35601 | 51.57558 | 38783 ft | 439 kts | 290° |
| 2026-05-05 10:32 | 26.38208 | 51.51421 | 38788 ft | 435 kts | 285° |
| 2026-05-05 10:33 | 26.40213 | 51.45095 | 38786 ft | 432 kts | 284° |
| 2026-05-05 10:33 | 26.42206 | 51.38762 | 38776 ft | 432 kts | 284° |
| 2026-05-05 10:34 | 26.44244 | 51.32458 | 38761 ft | 432 kts | 285° |
| 2026-05-05 10:34 | 26.46310 | 51.26159 | 38782 ft | 432 kts | 285° |
| 2026-05-05 10:35 | 26.48315 | 51.19890 | 38782 ft | 432 kts | 284° |
| 2026-05-05 10:35 | 26.50315 | 51.13570 | 38783 ft | 432 kts | 284° |
| 2026-05-05 10:36 | 26.52318 | 51.07249 | 38781 ft | 432 kts | 284° |
| 2026-05-05 10:36 | 26.54323 | 51.00920 | 38772 ft | 432 kts | 284° |
| 2026-05-05 10:37 | 26.56326 | 50.94587 | 38780 ft | 433 kts | 284° |
| 2026-05-05 10:37 | 26.58315 | 50.88244 | 38791 ft | 432 kts | 284° |
| 2026-05-05 10:38 | 26.60260 | 50.81887 | 38790 ft | 432 kts | 283° |
| 2026-05-05 10:38 | 26.62204 | 50.75527 | 38779 ft | 432 kts | 283° |
| 2026-05-05 10:39 | 26.64151 | 50.69165 | 38776 ft | 432 kts | 283° |
| 2026-05-05 10:39 | 26.66058 | 50.62803 | 38783 ft | 432 kts | 283° |
| 2026-05-05 10:40 | 26.67934 | 50.56471 | 38779 ft | 431 kts | 283° |
| 2026-05-05 10:40 | 26.69824 | 50.50108 | 38779 ft | 431 kts | 283° |
| 2026-05-05 10:41 | 26.71595 | 50.43722 | 38776 ft | 429 kts | 281° |
| 2026-05-05 10:41 | 26.73210 | 50.37311 | 38772 ft | 428 kts | 281° |
| 2026-05-05 10:42 | 26.74617 | 50.30891 | 38765 ft | 418 kts | 269° |
| 2026-05-05 10:42 | 26.74482 | 50.27671 | 38780 ft | 413 kts | 260° |
| 2026-05-05 10:43 | 26.72904 | 50.21536 | 38760 ft | 411 kts | 242° |
| 2026-05-05 10:43 | 26.69966 | 50.16046 | 38770 ft | 412 kts | 240° |
| 2026-05-05 10:44 | 26.67017 | 50.10594 | 38758 ft | 413 kts | 241° |
| 2026-05-05 10:44 | 26.64083 | 50.05058 | 38748 ft | 414 kts | 241° |
| 2026-05-05 10:45 | 26.61153 | 49.99501 | 38735 ft | 416 kts | 241° |
| 2026-05-05 10:45 | 26.58213 | 49.93929 | 38728 ft | 417 kts | 241° |
| 2026-05-05 10:46 | 26.55278 | 49.88331 | 38721 ft | 418 kts | 241° |
| 2026-05-05 10:46 | 26.52337 | 49.82727 | 38723 ft | 419 kts | 241° |
| 2026-05-05 10:47 | 26.49647 | 49.76976 | 38722 ft | 418 kts | 247° |
| 2026-05-05 10:47 | 26.47698 | 49.70874 | 38736 ft | 418 kts | 252° |
| 2026-05-05 10:48 | 26.45906 | 49.64708 | 38722 ft | 418 kts | 251° |
| 2026-05-05 10:48 | 26.44105 | 49.58553 | 38721 ft | 417 kts | 251° |
| 2026-05-05 10:49 | 26.42292 | 49.52398 | 38728 ft | 417 kts | 251° |
| 2026-05-05 10:49 | 26.40478 | 49.46258 | 38727 ft | 417 kts | 251° |
| 2026-05-05 10:50 | 26.38662 | 49.40126 | 38738 ft | 416 kts | 251° |
| 2026-05-05 10:50 | 26.36846 | 49.34002 | 38740 ft | 416 kts | 251° |
| 2026-05-05 10:51 | 26.35043 | 49.27933 | 38740 ft | 415 kts | 251° |
| 2026-05-05 10:51 | 26.33228 | 49.21829 | 38744 ft | 415 kts | 251° |
| 2026-05-05 10:52 | 26.31411 | 49.15733 | 38746 ft | 414 kts | 251° |
| 2026-05-05 10:52 | 26.29882 | 49.09559 | 38754 ft | 414 kts | 257° |
| 2026-05-05 10:53 | 26.29142 | 49.03196 | 38761 ft | 415 kts | 263° |
| 2026-05-05 10:53 | 26.28678 | 48.96790 | 38760 ft | 415 kts | 263° |
| 2026-05-05 10:54 | 26.28207 | 48.90390 | 38762 ft | 414 kts | 263° |
| 2026-05-05 10:54 | 26.27722 | 48.84000 | 38759 ft | 414 kts | 263° |
| 2026-05-05 10:55 | 26.27230 | 48.77620 | 38766 ft | 413 kts | 262° |
| 2026-05-05 10:55 | 26.26739 | 48.71285 | 38765 ft | 413 kts | 262° |
| 2026-05-05 10:56 | 26.26242 | 48.64918 | 38767 ft | 413 kts | 262° |
| 2026-05-05 10:56 | 26.25743 | 48.58549 | 38766 ft | 412 kts | 262° |
| 2026-05-05 10:57 | 26.24896 | 48.52261 | 38777 ft | 409 kts | 255° |
| 2026-05-05 10:57 | 26.23315 | 48.46296 | 38773 ft | 408 kts | 250° |
| 2026-05-05 10:58 | 26.21032 | 48.40507 | 38778 ft | 408 kts | 245° |
| 2026-05-05 10:58 | 26.18599 | 48.34800 | 38782 ft | 408 kts | 245° |
| 2026-05-05 10:59 | 26.16194 | 48.29086 | 38773 ft | 408 kts | 245° |
| 2026-05-05 10:59 | 26.13800 | 48.23366 | 38781 ft | 407 kts | 245° |
| 2026-05-05 11:00 | 26.10969 | 48.17909 | 38791 ft | 408 kts | 237° |
| 2026-05-05 11:00 | 26.07524 | 48.12923 | 38780 ft | 411 kts | 230° |
| 2026-05-05 11:01 | 26.03580 | 48.08307 | 38781 ft | 412 kts | 229° |
| 2026-05-05 11:01 | 25.99603 | 48.03719 | 38798 ft | 412 kts | 230° |
| 2026-05-05 11:02 | 25.95643 | 47.99117 | 38794 ft | 412 kts | 230° |
| 2026-05-05 11:02 | 25.91685 | 47.94502 | 38791 ft | 412 kts | 230° |
| 2026-05-05 11:03 | 25.87732 | 47.89896 | 38793 ft | 412 kts | 230° |
| 2026-05-05 11:03 | 25.83776 | 47.85293 | 38801 ft | 412 kts | 230° |
| 2026-05-05 11:04 | 25.79823 | 47.80693 | 38809 ft | 411 kts | 230° |
| 2026-05-05 11:04 | 25.76542 | 47.76874 | 38812 ft | 411 kts | 230° |
| 2026-05-05 11:05 | 25.72591 | 47.72280 | 38812 ft | 411 kts | 230° |
| 2026-05-05 11:05 | 25.67972 | 47.66915 | 38815 ft | 411 kts | 230° |
| 2026-05-05 11:06 | 25.64686 | 47.63109 | 38818 ft | 411 kts | 229° |
| 2026-05-05 11:06 | 25.60722 | 47.58530 | 38828 ft | 411 kts | 229° |
| 2026-05-05 11:07 | 25.56759 | 47.53955 | 38828 ft | 411 kts | 229° |
| 2026-05-05 11:07 | 25.52797 | 47.49385 | 38829 ft | 412 kts | 229° |
| 2026-05-05 11:08 | 25.48829 | 47.44810 | 38831 ft | 412 kts | 229° |
| 2026-05-05 11:08 | 25.44887 | 47.40268 | 38837 ft | 412 kts | 229° |
| 2026-05-05 11:09 | 25.40913 | 47.35695 | 38841 ft | 412 kts | 229° |
| 2026-05-05 11:09 | 25.36939 | 47.31124 | 38845 ft | 412 kts | 229° |
| 2026-05-05 11:10 | 25.32959 | 47.26553 | 38849 ft | 412 kts | 229° |
| 2026-05-05 11:10 | 25.28979 | 47.21985 | 38852 ft | 412 kts | 229° |
| 2026-05-05 11:11 | 25.24998 | 47.17422 | 38854 ft | 412 kts | 229° |
| 2026-05-05 11:11 | 25.21019 | 47.12865 | 38864 ft | 412 kts | 229° |
| 2026-05-05 11:12 | 25.17035 | 47.08306 | 38865 ft | 412 kts | 229° |
| 2026-05-05 11:12 | 25.13051 | 47.03753 | 38864 ft | 413 kts | 229° |
| 2026-05-05 11:13 | 25.09061 | 46.99198 | 38866 ft | 413 kts | 229° |
| 2026-05-05 11:13 | 25.05068 | 46.94642 | 38865 ft | 413 kts | 229° |
| 2026-05-05 11:14 | 25.01094 | 46.90113 | 38862 ft | 414 kts | 229° |
| 2026-05-05 11:14 | 24.97088 | 46.85550 | 38859 ft | 415 kts | 229° |
| 2026-05-05 11:15 | 24.93070 | 46.80981 | 38853 ft | 415 kts | 229° |
| 2026-05-05 11:15 | 24.89379 | 46.76123 | 38873 ft | 413 kts | 237° |
| 2026-05-05 11:16 | 24.86338 | 46.70767 | 38850 ft | 412 kts | 243° |
| 2026-05-05 11:16 | 24.83846 | 46.65081 | 38850 ft | 413 kts | 245° |
| 2026-05-05 11:17 | 24.81402 | 46.59368 | 38866 ft | 413 kts | 245° |
| 2026-05-05 11:17 | 24.78939 | 46.53652 | 38875 ft | 413 kts | 244° |
| 2026-05-05 11:18 | 24.76462 | 46.47945 | 38878 ft | 414 kts | 244° |
| 2026-05-05 11:18 | 24.73977 | 46.42238 | 38866 ft | 414 kts | 244° |
| 2026-05-05 11:19 | 24.71490 | 46.36536 | 38884 ft | 413 kts | 244° |
| 2026-05-05 11:19 | 24.69001 | 46.30837 | 38883 ft | 413 kts | 244° |
| 2026-05-05 11:20 | 24.66515 | 46.25150 | 38880 ft | 413 kts | 244° |
| 2026-05-05 11:20 | 24.64042 | 46.19501 | 38861 ft | 413 kts | 244° |
| 2026-05-05 11:21 | 24.61553 | 46.13822 | 38868 ft | 413 kts | 244° |
| 2026-05-05 11:21 | 24.59062 | 46.08143 | 38866 ft | 412 kts | 244° |
| 2026-05-05 11:22 | 24.56568 | 46.02468 | 38861 ft | 412 kts | 244° |
| 2026-05-05 11:22 | 24.54074 | 45.96798 | 38862 ft | 412 kts | 244° |
| 2026-05-05 11:23 | 24.51575 | 45.91123 | 38854 ft | 413 kts | 244° |
| 2026-05-05 11:23 | 24.49073 | 45.85448 | 38858 ft | 413 kts | 244° |
| 2026-05-05 11:24 | 24.46567 | 45.79770 | 38851 ft | 413 kts | 244° |
| 2026-05-05 11:24 | 24.44054 | 45.74094 | 38852 ft | 413 kts | 244° |
| 2026-05-05 11:25 | 24.41547 | 45.68463 | 38849 ft | 414 kts | 244° |
| 2026-05-05 11:25 | 24.39021 | 45.62797 | 38856 ft | 414 kts | 244° |
| 2026-05-05 11:26 | 24.36493 | 45.57130 | 38856 ft | 414 kts | 244° |
| 2026-05-05 11:26 | 24.33961 | 45.51459 | 38844 ft | 414 kts | 244° |
| 2026-05-05 11:27 | 24.31428 | 45.45791 | 38848 ft | 414 kts | 244° |
| 2026-05-05 11:27 | 24.28895 | 45.40129 | 38855 ft | 413 kts | 244° |
| 2026-05-05 11:28 | 24.26363 | 45.34478 | 38848 ft | 413 kts | 244° |
| 2026-05-05 11:28 | 24.23845 | 45.28863 | 38855 ft | 413 kts | 244° |
| 2026-05-05 11:29 | 24.21291 | 45.23176 | 38855 ft | 413 kts | 244° |
| 2026-05-05 11:29 | 24.18755 | 45.17534 | 38854 ft | 413 kts | 244° |
| 2026-05-05 11:30 | 24.16212 | 45.11885 | 38857 ft | 414 kts | 244° |
| 2026-05-05 11:30 | 24.13685 | 45.06270 | 38856 ft | 414 kts | 244° |
| 2026-05-05 11:31 | 24.11139 | 45.00611 | 38861 ft | 415 kts | 244° |
| 2026-05-05 11:31 | 24.09434 | 44.96824 | 38868 ft | 415 kts | 244° |